Time;durP1;ratioP1;P1;durP2;ratioP2;P2;SDS_P1;SDS_P2;PMS_P1;PMS_P2;Temp;Humidity;BMP_temperature;BMP_pressure;BME280_temperature;BME280_humidity;BME280_pressure;Samples;Min_cycle;Max_cycle;Signal;HPM_P1;HPM_P2
2024/04/13 00:00:04;;;;;;;;;;;15.20;99.90;;;;;;5356714;26;20264;-80
2024/04/13 00:02:32;;;;;;;;;;;15.20;99.90;;;;;;5417739;26;19929;-80
2024/04/13 00:04:58;;;;;;;;;;;15.10;99.90;;;;;;5381313;26;19937;-80
2024/04/13 00:07:24;;;;;;;;;;;15.10;99.90;;;;;;5344710;26;19995;-80
2024/04/13 00:09:50;;;;;;;;;;;15.10;99.90;;;;;;5350687;26;19949;-80
2024/04/13 00:12:15;;;;;;;;;;;15.00;99.90;;;;;;5351018;26;20253;-80
2024/04/13 00:14:41;;;;;;;;;;;15.10;99.90;;;;;;5342538;26;20238;-80
2024/04/13 00:17:07;;;;;;;;;;;15.00;99.90;;;;;;5351062;26;19929;-80
2024/04/13 00:19:35;;;;;;;;;;;15.10;99.90;;;;;;5351626;26;19929;-80
2024/04/13 00:22:02;;;;;;;;;;;15.00;99.90;;;;;;5388136;26;19998;-80
2024/04/13 00:24:27;;;;;;;;;;;15.00;99.90;;;;;;5326267;26;19929;-80
2024/04/13 00:26:53;;;;;;;;;;;15.00;99.90;;;;;;5298174;26;19929;-80
2024/04/13 00:29:19;;;;;;;;;;;15.00;99.90;;;;;;5387073;26;19934;-80
2024/04/13 00:31:44;;;;;;;;;;;15.00;99.90;;;;;;5338071;26;19964;-80
2024/04/13 00:34:10;;;;;;;;;;;14.90;99.90;;;;;;5389539;26;19994;-80
2024/04/13 00:36:35;;;;;;;;;;;14.90;99.90;;;;;;5393612;26;19929;-80
2024/04/13 00:39:04;;;;;;;;;;;14.90;99.90;;;;;;5325888;26;19940;-80
2024/04/13 00:41:30;;;;;;;;;;;14.80;99.90;;;;;;5354817;26;19961;-80
2024/04/13 00:44:00;;;;;;;;;;;14.80;99.90;;;;;;5384593;26;19933;-80
2024/04/13 00:46:25;;;;;;;;;;;14.80;99.90;;;;;;5359543;26;19940;-80
2024/04/13 00:48:51;;;;;;;;;;;14.80;99.90;;;;;;5388014;26;20361;-80
2024/04/13 00:51:17;;;;;;;;;;;14.80;99.90;;;;;;5387891;26;19994;-80
2024/04/13 00:53:43;;;;;;;;;;;14.80;99.90;;;;;;5364108;26;19929;-79
2024/04/13 00:56:09;;;;;;;;;;;14.80;99.90;;;;;;5375371;26;19930;-79
2024/04/13 00:58:35;;;;;;;;;;;14.80;99.90;;;;;;5345056;26;19929;-79
2024/04/13 01:01:01;;;;;;;;;;;14.80;99.90;;;;;;5370044;26;20364;-78
2024/04/13 01:03:27;;;;;;;;;;;14.70;99.90;;;;;;5388683;26;19929;-78
2024/04/13 01:05:55;;;;;;;;;;;14.70;99.90;;;;;;5388789;26;19979;-79
2024/04/13 01:08:21;;;;;;;;;;;14.70;99.90;;;;;;5382599;26;19935;-79
2024/04/13 01:10:47;;;;;;;;;;;14.70;99.90;;;;;;5353835;26;19929;-78
2024/04/13 01:13:12;;;;;;;;;;;14.70;99.90;;;;;;5390140;26;19975;-78
2024/04/13 01:15:38;;;;;;;;;;;14.70;99.90;;;;;;5388860;26;19928;-78
2024/04/13 01:18:10;;;;;;;;;;;14.70;99.90;;;;;;5388954;26;19929;-78
2024/04/13 01:20:39;;;;;;;;;;;14.70;99.90;;;;;;5379835;26;19929;-78
2024/04/13 01:23:05;;;;;;;;;;;14.60;99.90;;;;;;5359016;26;20430;-78
2024/04/13 01:25:31;;;;;;;;;;;14.70;99.90;;;;;;5358646;26;19940;-78
2024/04/13 01:27:57;;;;;;;;;;;14.60;99.90;;;;;;5388178;26;20356;-78
2024/04/13 01:30:22;;;;;;;;;;;14.60;99.90;;;;;;5387868;26;19929;-79
2024/04/13 01:32:49;;;;;;;;;;;14.60;99.90;;;;;;5358020;26;19965;-79
2024/04/13 01:35:14;;;;;;;;;;;14.60;99.90;;;;;;5348925;26;19930;-79
2024/04/13 01:37:41;;;;;;;;;;;14.60;99.90;;;;;;5387835;26;19939;-78
2024/04/13 01:40:07;;;;;;;;;;;14.60;99.90;;;;;;5354842;26;19929;-78
2024/04/13 01:42:33;;;;;;;;;;;14.60;99.90;;;;;;5352538;26;20587;-78
2024/04/13 01:44:59;;;;;;;;;;;14.50;99.90;;;;;;5402736;26;19929;-78
2024/04/13 01:47:24;;;;;;;;;;;14.60;99.90;;;;;;5368568;26;19930;-78
2024/04/13 01:49:50;;;;;;;;;;;14.60;99.90;;;;;;5317169;26;19995;-78
2024/04/13 01:52:16;;;;;;;;;;;14.50;99.90;;;;;;5387575;26;19941;-80
2024/04/13 01:54:41;;;;;;;;;;;14.50;99.90;;;;;;5386934;26;19929;-78
2024/04/13 01:57:07;;;;;;;;;;;14.50;99.90;;;;;;5363619;26;19935;-78
2024/04/13 01:59:32;;;;;;;;;;;14.50;99.90;;;;;;5357791;26;19936;-78
2024/04/13 02:01:58;;;;;;;;;;;14.50;99.90;;;;;;5359374;26;19935;-78
2024/04/13 02:04:24;;;;;;;;;;;14.40;99.90;;;;;;5378362;26;19933;-78
2024/04/13 02:06:49;;;;;;;;;;;14.50;99.90;;;;;;5334639;26;19930;-78
2024/04/13 02:09:18;;;;;;;;;;;14.40;99.90;;;;;;5371159;26;19929;-78
2024/04/13 02:11:47;;;;;;;;;;;14.50;99.90;;;;;;5357616;26;19929;-79
2024/04/13 02:14:12;;;;;;;;;;;14.40;99.90;;;;;;5344815;26;19929;-79
2024/04/13 02:16:38;;;;;;;;;;;14.40;99.90;;;;;;5386854;26;19959;-79
2024/04/13 02:19:07;;;;;;;;;;;14.40;99.90;;;;;;5359672;26;19929;-80
2024/04/13 02:21:32;;;;;;;;;;;14.40;99.90;;;;;;5381564;26;19976;-79
2024/04/13 02:23:59;;;;;;;;;;;14.40;99.90;;;;;;5323741;26;19929;-80
2024/04/13 02:26:25;;;;;;;;;;;14.40;99.90;;;;;;5375210;26;19936;-79
2024/04/13 02:28:51;;;;;;;;;;;14.40;99.90;;;;;;5387235;26;19929;-79
2024/04/13 02:31:17;;;;;;;;;;;14.50;99.90;;;;;;5385641;26;19940;-78
2024/04/13 02:33:42;;;;;;;;;;;14.40;99.90;;;;;;5356003;26;19930;-78
2024/04/13 02:36:08;;;;;;;;;;;14.40;99.90;;;;;;5386007;26;19929;-78
2024/04/13 02:38:34;;;;;;;;;;;14.40;99.90;;;;;;5371370;26;19936;-78
2024/04/13 02:41:00;;;;;;;;;;;14.40;99.90;;;;;;5362618;26;19928;-78
2024/04/13 02:43:30;;;;;;;;;;;14.40;99.90;;;;;;5392796;26;19929;-79
2024/04/13 02:46:08;;;;;;;;;;;14.40;99.90;;;;;;5394443;26;20359;-79
2024/04/13 02:48:43;;;;;;;;;;;14.40;99.90;;;;;;5323687;26;19929;-79
2024/04/13 02:51:09;;;;;;;;;;;14.40;99.90;;;;;;5379008;26;19935;-79
2024/04/13 02:53:35;;;;;;;;;;;14.40;99.90;;;;;;5386947;26;19932;-79
2024/04/13 02:56:01;;;;;;;;;;;14.40;99.90;;;;;;5357599;26;19937;-79
2024/04/13 02:58:27;;;;;;;;;;;14.40;99.90;;;;;;5417886;26;19936;-78
2024/04/13 03:00:59;;;;;;;;;;;14.40;99.90;;;;;;5417270;26;19929;-78
2024/04/13 03:03:28;;;;;;;;;;;14.40;99.90;;;;;;5378824;26;19929;-78
2024/04/13 03:06:13;;;;;;;;;;;14.40;99.90;;;;;;5354560;26;19961;-78
2024/04/13 03:08:39;;;;;;;;;;;14.40;99.90;;;;;;5333176;26;20004;-78
2024/04/13 03:11:05;;;;;;;;;;;14.50;99.90;;;;;;5347447;26;19930;-79
2024/04/13 03:13:31;;;;;;;;;;;14.40;99.90;;;;;;5323872;26;20291;-78
2024/04/13 03:16:01;;;;;;;;;;;14.40;99.90;;;;;;5358555;26;19949;-78
2024/04/13 03:18:27;;;;;;;;;;;14.40;99.90;;;;;;5385090;26;19929;-80
2024/04/13 03:20:53;;;;;;;;;;;14.40;99.90;;;;;;5329508;26;19940;-80
2024/04/13 03:23:18;;;;;;;;;;;14.50;99.90;;;;;;5364099;26;19936;-80
2024/04/13 03:25:44;;;;;;;;;;;14.50;99.90;;;;;;5383581;26;19956;-80
2024/04/13 03:28:10;;;;;;;;;;;14.50;99.90;;;;;;5356819;26;19929;-79
2024/04/13 03:30:39;;;;;;;;;;;14.40;99.90;;;;;;5351607;26;20629;-79
2024/04/13 03:33:04;;;;;;;;;;;14.40;99.90;;;;;;5345292;26;19936;-79
2024/04/13 03:35:36;;;;;;;;;;;14.50;99.90;;;;;;5328531;26;19929;-79
2024/04/13 03:38:02;;;;;;;;;;;14.50;99.90;;;;;;5301426;26;19941;-79
2024/04/13 03:40:28;;;;;;;;;;;14.40;99.90;;;;;;5378172;26;19936;-79
2024/04/13 03:42:54;;;;;;;;;;;14.50;99.90;;;;;;5331264;26;19990;-79
2024/04/13 03:45:19;;;;;;;;;;;14.50;99.90;;;;;;5365713;26;19929;-79
2024/04/13 03:47:45;;;;;;;;;;;14.40;99.90;;;;;;5415723;26;20402;-78
2024/04/13 03:50:10;;;;;;;;;;;14.50;99.90;;;;;;5386783;26;20419;-78
2024/04/13 03:52:37;;;;;;;;;;;14.40;99.90;;;;;;5386472;26;19929;-78
2024/04/13 03:55:04;;;;;;;;;;;14.40;99.90;;;;;;5352875;26;19936;-78
2024/04/13 03:57:32;;;;;;;;;;;14.40;99.90;;;;;;5330707;26;19928;-78
2024/04/13 03:59:58;;;;;;;;;;;14.40;99.90;;;;;;5354947;26;19936;-78
2024/04/13 04:02:23;;;;;;;;;;;14.40;99.90;;;;;;5361779;26;19929;-80
2024/04/13 04:04:49;;;;;;;;;;;14.40;99.90;;;;;;5360552;26;19961;-78
2024/04/13 04:07:15;;;;;;;;;;;14.40;99.90;;;;;;5329564;26;19950;-79
2024/04/13 04:09:40;;;;;;;;;;;14.40;99.90;;;;;;5361895;26;19930;-78
2024/04/13 04:12:06;;;;;;;;;;;14.40;99.90;;;;;;5330668;26;19935;-79
2024/04/13 04:14:32;;;;;;;;;;;14.40;99.90;;;;;;5333336;26;19933;-79
2024/04/13 04:16:58;;;;;;;;;;;14.40;99.90;;;;;;5355652;26;19964;-77
2024/04/13 04:19:23;;;;;;;;;;;14.30;99.90;;;;;;5410587;26;19921;-78
2024/04/13 04:21:49;;;;;;;;;;;14.40;99.90;;;;;;5410508;26;19921;-77
2024/04/13 04:24:15;;;;;;;;;;;14.30;99.90;;;;;;5412665;26;19929;-78
2024/04/13 04:26:40;;;;;;;;;;;14.30;99.90;;;;;;5411477;26;19927;-79
2024/04/13 04:29:06;;;;;;;;;;;14.30;99.90;;;;;;5369320;26;19941;-78
2024/04/13 04:31:32;;;;;;;;;;;14.30;99.90;;;;;;5366492;26;19941;-77
2024/04/13 04:33:57;;;;;;;;;;;14.30;99.90;;;;;;5371848;26;19929;-78
2024/04/13 04:36:23;;;;;;;;;;;14.30;99.90;;;;;;5377748;26;19963;-78
2024/04/13 04:38:51;;;;;;;;;;;14.20;99.90;;;;;;5341203;26;20305;-79
2024/04/13 04:41:17;;;;;;;;;;;14.30;99.90;;;;;;5388126;26;19935;-79
2024/04/13 04:43:44;;;;;;;;;;;14.30;99.90;;;;;;5351150;26;20396;-79
2024/04/13 04:46:09;;;;;;;;;;;14.20;99.90;;;;;;5354200;26;19935;-79
2024/04/13 04:48:35;;;;;;;;;;;14.20;99.90;;;;;;5360028;26;19929;-79
2024/04/13 04:51:02;;;;;;;;;;;14.20;99.90;;;;;;5388442;26;19969;-79
2024/04/13 04:53:28;;;;;;;;;;;14.30;99.90;;;;;;5333792;26;20341;-79
2024/04/13 04:55:54;;;;;;;;;;;14.20;99.90;;;;;;5335561;26;19936;-79
2024/04/13 04:58:19;;;;;;;;;;;14.20;99.90;;;;;;5305710;26;20251;-79
2024/04/13 05:00:45;;;;;;;;;;;14.20;99.90;;;;;;5360765;26;19929;-79
2024/04/13 05:03:11;;;;;;;;;;;14.20;99.90;;;;;;5330812;26;20039;-79
2024/04/13 05:05:36;;;;;;;;;;;14.20;99.90;;;;;;5364033;26;19995;-79
2024/04/13 05:08:02;;;;;;;;;;;14.20;99.90;;;;;;5341383;26;19980;-80
2024/04/13 05:10:28;;;;;;;;;;;14.20;99.90;;;;;;5357779;26;19995;-79
2024/04/13 05:12:54;;;;;;;;;;;14.20;99.90;;;;;;5347623;26;19929;-79
2024/04/13 05:15:20;;;;;;;;;;;14.20;99.90;;;;;;5349616;26;19975;-79
2024/04/13 05:17:46;;;;;;;;;;;14.20;99.90;;;;;;5363785;26;19941;-79
2024/04/13 05:20:12;;;;;;;;;;;14.20;99.90;;;;;;5362620;26;19929;-79
2024/04/13 05:22:38;;;;;;;;;;;14.20;99.90;;;;;;5337753;26;20274;-79
2024/04/13 05:25:05;;;;;;;;;;;14.20;99.90;;;;;;5362257;26;19940;-79
2024/04/13 05:27:31;;;;;;;;;;;14.10;99.90;;;;;;5330129;26;19928;-78
2024/04/13 05:30:02;;;;;;;;;;;14.20;99.90;;;;;;5357835;26;19945;-78
2024/04/13 05:32:28;;;;;;;;;;;14.20;99.90;;;;;;5330561;26;20674;-78
2024/04/13 05:34:54;;;;;;;;;;;14.20;99.90;;;;;;5387677;26;19995;-78
2024/04/13 05:37:19;;;;;;;;;;;14.20;99.90;;;;;;5387447;26;19929;-78
2024/04/13 05:39:45;;;;;;;;;;;14.20;99.90;;;;;;5386290;26;19982;-78
2024/04/13 05:42:11;;;;;;;;;;;14.20;99.90;;;;;;5386400;26;19929;-78
2024/04/13 05:44:37;;;;;;;;;;;14.20;99.90;;;;;;5356823;26;19940;-79
2024/04/13 05:47:02;;;;;;;;;;;14.20;99.90;;;;;;5322341;26;20304;-79
2024/04/13 05:49:28;;;;;;;;;;;14.20;99.90;;;;;;5381343;26;19930;-79
2024/04/13 05:51:56;;;;;;;;;;;14.30;99.90;;;;;;5353489;26;20243;-79
2024/04/13 05:54:22;;;;;;;;;;;14.30;99.90;;;;;;5387437;26;20418;-79
2024/04/13 05:56:47;;;;;;;;;;;14.40;99.90;;;;;;5358682;26;20360;-79
2024/04/13 05:59:13;;;;;;;;;;;14.40;99.90;;;;;;5329622;26;19994;-79
2024/04/13 06:01:43;;;;;;;;;;;14.40;99.90;;;;;;5329517;26;19929;-79
2024/04/13 06:04:09;;;;;;;;;;;14.40;99.90;;;;;;5331158;26;19936;-79
2024/04/13 06:06:34;;;;;;;;;;;14.50;99.90;;;;;;5331166;26;19938;-80
2024/04/13 06:09:00;;;;;;;;;;;14.50;99.90;;;;;;5360270;26;19930;-80
2024/04/13 06:11:26;;;;;;;;;;;14.50;99.90;;;;;;5360258;26;19933;-81
2024/04/13 06:13:52;;;;;;;;;;;14.60;99.90;;;;;;5333772;26;19994;-80
2024/04/13 06:16:17;;;;;;;;;;;14.60;99.90;;;;;;5363576;26;19962;-79
2024/04/13 06:18:43;;;;;;;;;;;14.70;99.90;;;;;;5328699;26;19933;-79
2024/04/13 06:21:10;;;;;;;;;;;14.70;99.90;;;;;;5416891;26;19981;-79
2024/04/13 06:23:36;;;;;;;;;;;14.80;99.90;;;;;;5386302;26;19936;-78
2024/04/13 06:26:01;;;;;;;;;;;14.80;99.90;;;;;;5387081;26;19929;-79
2024/04/13 06:28:27;;;;;;;;;;;14.80;99.90;;;;;;5374201;26;19929;-79
2024/04/13 06:30:53;;;;;;;;;;;14.90;99.90;;;;;;5357826;26;19936;-79
2024/04/13 06:33:23;;;;;;;;;;;14.90;99.90;;;;;;5351184;26;19929;-79
2024/04/13 06:35:50;;;;;;;;;;;14.90;99.90;;;;;;5377720;26;19933;-79
2024/04/13 06:38:23;;;;;;;;;;;15.00;99.90;;;;;;5424951;26;19940;-79
2024/04/13 06:40:52;;;;;;;;;;;15.20;99.90;;;;;;5426404;26;19935;-79
2024/04/13 06:43:18;;;;;;;;;;;15.20;99.90;;;;;;5427978;26;19929;-79
2024/04/13 06:45:44;;;;;;;;;;;15.30;99.90;;;;;;5330484;26;19949;-79
2024/04/13 06:48:09;;;;;;;;;;;15.30;99.90;;;;;;5357962;26;19932;-79
2024/04/13 06:50:37;;;;;;;;;;;15.30;99.90;;;;;;5391038;26;20218;-79
2024/04/13 06:53:02;;;;;;;;;;;15.30;99.90;;;;;;5421834;26;19993;-79
2024/04/13 06:55:28;;;;;;;;;;;15.40;99.90;;;;;;5422265;26;19940;-79
2024/04/13 06:57:54;;;;;;;;;;;15.50;99.90;;;;;;5365309;26;19961;-79
2024/04/13 07:00:19;;;;;;;;;;;15.50;99.90;;;;;;5379465;26;19936;-79
2024/04/13 07:02:46;;;;;;;;;;;15.60;99.90;;;;;;5322788;26;19953;-79
2024/04/13 07:05:12;;;;;;;;;;;15.60;99.90;;;;;;5325964;26;19929;-79
2024/04/13 07:07:39;;;;;;;;;;;15.70;99.90;;;;;;5323694;26;20308;-79
2024/04/13 07:10:05;;;;;;;;;;;15.70;99.90;;;;;;5323107;26;19929;-80
2024/04/13 07:12:31;;;;;;;;;;;15.80;99.90;;;;;;5355947;26;19929;-80
2024/04/13 07:14:56;;;;;;;;;;;15.80;99.90;;;;;;5357042;26;19929;-80
2024/04/13 07:17:22;;;;;;;;;;;15.80;99.90;;;;;;5321833;26;19929;-80
2024/04/13 07:19:48;;;;;;;;;;;15.90;99.90;;;;;;5323081;26;19936;-80
2024/04/13 07:22:13;;;;;;;;;;;15.90;99.90;;;;;;5324555;26;19936;-80
2024/04/13 07:24:39;;;;;;;;;;;15.90;99.90;;;;;;5355112;26;19995;-80
2024/04/13 07:27:05;;;;;;;;;;;15.90;99.90;;;;;;5349982;26;19940;-80
2024/04/13 07:29:30;;;;;;;;;;;16.00;99.90;;;;;;5322970;26;20326;-80
2024/04/13 07:31:56;;;;;;;;;;;16.00;99.90;;;;;;5323791;26;19937;-80
2024/04/13 07:34:22;;;;;;;;;;;15.90;99.90;;;;;;5326016;26;19980;-79
2024/04/13 07:36:49;;;;;;;;;;;16.00;99.90;;;;;;5359909;26;19980;-79
2024/04/13 07:39:14;;;;;;;;;;;16.00;99.90;;;;;;5420627;26;19937;-79
2024/04/13 07:41:40;;;;;;;;;;;16.00;99.90;;;;;;5371352;26;19937;-79
2024/04/13 07:44:06;;;;;;;;;;;16.00;99.90;;;;;;5384097;26;19941;-79
2024/04/13 07:46:32;;;;;;;;;;;16.10;99.90;;;;;;5354607;26;19930;-79
2024/04/13 07:48:58;;;;;;;;;;;16.10;99.90;;;;;;5354656;26;19995;-79
2024/04/13 07:51:24;;;;;;;;;;;16.20;99.90;;;;;;5352820;26;19929;-79
2024/04/13 07:53:49;;;;;;;;;;;16.20;99.90;;;;;;5377934;26;19929;-79
2024/04/13 07:56:15;;;;;;;;;;;16.30;99.90;;;;;;5389296;26;19983;-79
2024/04/13 07:58:41;;;;;;;;;;;16.40;99.90;;;;;;5393547;26;19995;-79
2024/04/13 08:01:06;;;;;;;;;;;16.50;99.90;;;;;;5422254;26;19933;-80
2024/04/13 08:03:32;;;;;;;;;;;16.60;99.90;;;;;;5390916;26;19936;-79
2024/04/13 08:05:58;;;;;;;;;;;16.70;99.90;;;;;;5364214;26;19995;-79
2024/04/13 08:08:23;;;;;;;;;;;16.70;99.90;;;;;;5357078;26;20541;-80
2024/04/13 08:10:49;;;;;;;;;;;16.80;99.90;;;;;;5354377;26;19936;-79
2024/04/13 08:13:15;;;;;;;;;;;16.90;99.90;;;;;;5383421;26;19934;-79
2024/04/13 08:15:41;;;;;;;;;;;16.90;99.90;;;;;;5404368;26;19929;-79
2024/04/13 08:18:07;;;;;;;;;;;17.00;99.90;;;;;;5389031;26;19960;-80
2024/04/13 08:20:36;;;;;;;;;;;17.10;99.90;;;;;;5389831;26;19929;-80
2024/04/13 08:23:01;;;;;;;;;;;17.10;99.90;;;;;;5362302;26;19990;-80
2024/04/13 08:25:30;;;;;;;;;;;17.20;99.90;;;;;;5354860;26;19929;-80
2024/04/13 08:27:56;;;;;;;;;;;17.30;99.90;;;;;;5324653;26;19930;-80
2024/04/13 08:30:24;;;;;;;;;;;17.30;99.90;;;;;;5324523;26;19936;-79
2024/04/13 08:32:50;;;;;;;;;;;17.50;99.90;;;;;;5352077;26;19945;-79
2024/04/13 08:35:15;;;;;;;;;;;17.50;99.90;;;;;;5352528;26;19995;-79
2024/04/13 08:37:46;;;;;;;;;;;17.60;99.90;;;;;;5415653;26;19933;-79
2024/04/13 08:40:11;;;;;;;;;;;17.60;99.90;;;;;;5370573;26;19940;-79
2024/04/13 08:42:39;;;;;;;;;;;17.60;99.90;;;;;;5340745;26;20355;-79
2024/04/13 08:45:09;;;;;;;;;;;17.70;99.90;;;;;;5324630;26;19934;-79
2024/04/13 08:47:34;;;;;;;;;;;17.70;99.90;;;;;;5329669;26;20531;-79
2024/04/13 08:50:00;;;;;;;;;;;17.80;99.90;;;;;;5354815;26;19940;-79
2024/04/13 08:52:26;;;;;;;;;;;17.90;99.90;;;;;;5417385;26;19929;-79
2024/04/13 08:54:52;;;;;;;;;;;18.00;99.90;;;;;;5354636;26;19941;-80
2024/04/13 08:57:20;;;;;;;;;;;18.00;99.90;;;;;;5416359;26;19936;-79
2024/04/13 08:59:46;;;;;;;;;;;18.10;99.90;;;;;;5383681;26;19980;-79
2024/04/13 09:02:12;;;;;;;;;;;18.10;99.90;;;;;;5353364;26;19936;-80
2024/04/13 09:04:38;;;;;;;;;;;18.20;99.90;;;;;;5383897;26;19933;-80
2024/04/13 09:07:04;;;;;;;;;;;18.20;99.90;;;;;;5324349;26;19930;-80
2024/04/13 09:09:30;;;;;;;;;;;18.20;99.90;;;;;;5324264;26;19966;-79
2024/04/13 09:11:57;;;;;;;;;;;18.20;99.90;;;;;;5353108;26;19934;-79
2024/04/13 09:14:23;;;;;;;;;;;18.20;99.90;;;;;;5354783;26;20404;-80
2024/04/13 09:16:48;;;;;;;;;;;18.30;99.90;;;;;;5377312;26;19929;-79
2024/04/13 09:19:14;;;;;;;;;;;18.20;99.90;;;;;;5389875;26;19975;-79
2024/04/13 09:21:40;;;;;;;;;;;18.30;99.90;;;;;;5389588;26;19936;-79
2024/04/13 09:24:07;;;;;;;;;;;18.40;99.90;;;;;;5383348;26;19941;-80
2024/04/13 09:26:44;;;;;;;;;;;18.50;99.90;;;;;;5353782;26;19995;-80
2024/04/13 09:29:13;;;;;;;;;;;18.50;99.90;;;;;;5381604;26;19930;-80
2024/04/13 09:31:45;;;;;;;;;;;18.50;99.90;;;;;;5384130;26;20479;-80
2024/04/13 09:34:17;;;;;;;;;;;18.50;99.90;;;;;;5396419;26;19937;-80
2024/04/13 09:36:43;;;;;;;;;;;18.60;99.90;;;;;;5361215;26;19994;-80
2024/04/13 09:39:18;;;;;;;;;;;18.70;99.90;;;;;;5370789;26;19942;-80
2024/04/13 09:41:44;;;;;;;;;;;18.70;99.90;;;;;;5364784;26;19998;-80
2024/04/13 09:44:09;;;;;;;;;;;18.80;99.90;;;;;;5361469;26;19936;-80
2024/04/13 09:46:35;;;;;;;;;;;18.80;99.90;;;;;;5420232;26;19929;-80
2024/04/13 09:49:01;;;;;;;;;;;18.80;99.90;;;;;;5361969;26;19968;-80
2024/04/13 09:51:27;;;;;;;;;;;18.80;99.90;;;;;;5389400;26;19929;-80
2024/04/13 09:53:52;;;;;;;;;;;18.90;99.90;;;;;;5391043;26;19937;-80
2024/04/13 09:56:18;;;;;;;;;;;18.90;99.90;;;;;;5390942;26;19929;-80
2024/04/13 09:58:44;;;;;;;;;;;19.00;99.90;;;;;;5360934;26;19929;-80
2024/04/13 10:01:09;;;;;;;;;;;19.10;99.90;;;;;;5332489;26;19929;-80
2024/04/13 10:03:35;;;;;;;;;;;19.10;99.90;;;;;;5391518;26;20364;-79
2024/04/13 10:06:01;;;;;;;;;;;19.10;99.90;;;;;;5356238;26;19929;-79
2024/04/13 10:08:27;;;;;;;;;;;19.10;99.90;;;;;;5360585;26;19949;-80
2024/04/13 10:10:53;;;;;;;;;;;19.20;99.90;;;;;;5413467;26;19930;-80
2024/04/13 10:13:45;;;;;;;;;;;19.30;99.90;;;;;;5379442;26;19935;-80
2024/04/13 10:16:11;;;;;;;;;;;19.30;99.90;;;;;;5415182;26;19929;-80
2024/04/13 10:18:36;;;;;;;;;;;19.40;99.90;;;;;;5391581;26;19994;-80
2024/04/13 10:21:02;;;;;;;;;;;19.50;99.90;;;;;;5424999;26;19941;-80
2024/04/13 10:23:36;;;;;;;;;;;19.60;99.90;;;;;;5391537;26;19936;-81
2024/04/13 10:26:05;;;;;;;;;;;19.70;99.90;;;;;;5360359;26;19929;-80
2024/04/13 10:28:31;;;;;;;;;;;19.60;99.90;;;;;;5391366;26;20244;-81
2024/04/13 10:30:56;;;;;;;;;;;19.70;99.90;;;;;;5355776;26;20021;-79
2024/04/13 10:33:26;;;;;;;;;;;19.70;99.90;;;;;;5330772;26;19937;-80
2024/04/13 10:35:51;;;;;;;;;;;19.70;99.90;;;;;;5336022;26;19929;-81
2024/04/13 10:38:17;;;;;;;;;;;19.80;99.90;;;;;;5356247;26;19940;-80
2024/04/13 10:40:43;;;;;;;;;;;19.70;99.90;;;;;;5381016;26;19929;-81
2024/04/13 10:43:14;;;;;;;;;;;19.90;99.90;;;;;;5360569;26;19996;-80
2024/04/13 10:45:40;;;;;;;;;;;20.10;99.90;;;;;;5395163;26;20282;-80
2024/04/13 10:48:06;;;;;;;;;;;20.10;99.90;;;;;;5418176;26;20365;-80
2024/04/13 10:50:31;;;;;;;;;;;20.10;99.90;;;;;;5332464;26;19945;-80
2024/04/13 10:52:57;;;;;;;;;;;20.10;99.90;;;;;;5388360;26;19929;-82
2024/04/13 10:55:23;;;;;;;;;;;20.10;99.90;;;;;;5391111;26;19939;-80
2024/04/13 10:57:49;;;;;;;;;;;20.10;99.90;;;;;;5390663;26;19929;-80
2024/04/13 11:00:15;;;;;;;;;;;20.10;99.90;;;;;;5392027;26;19995;-80
2024/04/13 11:02:40;;;;;;;;;;;20.20;99.90;;;;;;5333045;26;19929;-81
2024/04/13 11:05:06;;;;;;;;;;;20.40;99.90;;;;;;5370699;26;19929;-80
2024/04/13 11:07:32;;;;;;;;;;;20.40;99.90;;;;;;5357382;26;19929;-80
2024/04/13 11:09:57;;;;;;;;;;;20.30;99.90;;;;;;5359383;26;19929;-80
2024/04/13 11:12:23;;;;;;;;;;;20.40;99.90;;;;;;5386597;26;20013;-80
2024/04/13 11:14:49;;;;;;;;;;;20.40;99.90;;;;;;5378508;26;19941;-80
2024/04/13 11:17:15;;;;;;;;;;;20.40;99.90;;;;;;5392270;26;19936;-80
2024/04/13 11:19:41;;;;;;;;;;;20.50;99.90;;;;;;5391741;26;19930;-82
2024/04/13 11:22:09;;;;;;;;;;;20.50;99.90;;;;;;5365277;26;19949;-83
2024/04/13 11:24:35;;;;;;;;;;;20.60;99.90;;;;;;5332890;26;19991;-82
2024/04/13 11:27:01;;;;;;;;;;;20.70;99.90;;;;;;5331489;26;19937;-83
2024/04/13 11:29:27;;;;;;;;;;;20.80;99.90;;;;;;5340454;26;19929;-82
2024/04/13 11:31:53;;;;;;;;;;;20.90;99.90;;;;;;5357523;26;19928;-82
2024/04/13 11:34:19;;;;;;;;;;;21.00;99.90;;;;;;5335176;26;19929;-83
2024/04/13 11:36:44;;;;;;;;;;;20.90;99.90;;;;;;5369621;26;19936;-82
2024/04/13 11:39:10;;;;;;;;;;;20.90;99.90;;;;;;5400821;26;19936;-83
2024/04/13 11:44:57;;;;;;;;;;;20.80;99.90;;;;;;5425041;26;19929;-83
2024/04/13 11:47:23;;;;;;;;;;;20.80;99.90;;;;;;5358791;26;19929;-86
2024/04/13 11:49:49;;;;;;;;;;;20.90;99.90;;;;;;5346681;26;19936;-87
2024/04/13 11:52:17;;;;;;;;;;;21.00;99.90;;;;;;5324950;26;19933;-88
2024/04/13 11:54:43;;;;;;;;;;;21.10;99.90;;;;;;5356124;26;19938;-84
2024/04/13 11:57:11;;;;;;;;;;;21.30;99.90;;;;;;5385347;26;20242;-88
2024/04/13 11:59:37;;;;;;;;;;;21.30;99.90;;;;;;5419202;26;19929;-86
2024/04/13 12:02:03;;;;;;;;;;;21.30;99.90;;;;;;5386817;26;20338;-87
2024/04/13 12:04:28;;;;;;;;;;;21.30;99.90;;;;;;5388750;26;19937;-87
2024/04/13 12:06:54;;;;;;;;;;;21.40;99.90;;;;;;5372434;26;19921;-85
2024/04/13 12:09:20;;;;;;;;;;;21.40;99.90;;;;;;5366625;26;19933;-86
2024/04/13 12:11:46;;;;;;;;;;;21.40;99.90;;;;;;5388295;26;20349;-87
2024/04/13 12:14:13;;;;;;;;;;;21.40;99.90;;;;;;5340311;26;19937;-85
2024/04/13 12:16:39;;;;;;;;;;;21.40;99.90;;;;;;5387836;26;19931;-87
2024/04/13 12:19:04;;;;;;;;;;;21.50;99.90;;;;;;5355131;26;19936;-87
2024/04/13 12:21:30;;;;;;;;;;;21.50;99.90;;;;;;5393196;26;19976;-87
2024/04/13 12:23:56;;;;;;;;;;;21.40;99.90;;;;;;5362562;26;20351;-86
2024/04/13 12:26:22;;;;;;;;;;;21.40;99.90;;;;;;5332473;26;19933;-87
2024/04/13 12:28:47;;;;;;;;;;;21.50;99.90;;;;;;5389970;26;20238;-88
2024/04/13 12:31:14;;;;;;;;;;;21.60;99.90;;;;;;5361175;26;20426;-89
2024/04/13 12:33:41;;;;;;;;;;;21.70;99.90;;;;;;5385195;26;20369;-83
2024/04/13 12:36:09;;;;;;;;;;;21.60;99.90;;;;;;5391324;26;19930;-87
2024/04/13 12:38:35;;;;;;;;;;;21.50;99.90;;;;;;5360046;26;20663;-87
2024/04/13 12:41:00;;;;;;;;;;;21.60;99.90;;;;;;5328362;26;19969;-87
2024/04/13 12:43:26;;;;;;;;;;;21.60;99.90;;;;;;5356594;26;19929;-86
2024/04/13 12:45:52;;;;;;;;;;;21.60;99.90;;;;;;5350615;26;19933;-88
2024/04/13 12:48:20;;;;;;;;;;;21.70;99.90;;;;;;5363511;26;19936;-83
2024/04/13 12:50:46;;;;;;;;;;;21.80;99.90;;;;;;5427935;26;19929;-84
2024/04/13 12:53:11;;;;;;;;;;;21.90;99.90;;;;;;5368300;26;19929;-83
2024/04/13 12:55:38;;;;;;;;;;;21.90;99.90;;;;;;5368909;26;20176;-84
2024/04/13 12:58:03;;;;;;;;;;;21.80;99.90;;;;;;5390366;26;19948;-84
2024/04/13 13:00:30;;;;;;;;;;;21.70;99.90;;;;;;5353980;26;19936;-83
2024/04/13 13:02:56;;;;;;;;;;;21.70;99.90;;;;;;5389740;26;20427;-84
2024/04/13 13:05:22;;;;;;;;;;;21.80;99.90;;;;;;5423218;26;19929;-84
2024/04/13 13:07:48;;;;;;;;;;;21.80;99.90;;;;;;5426131;26;20002;-83
2024/04/13 13:10:13;;;;;;;;;;;21.80;99.90;;;;;;5412676;26;19929;-84
2024/04/13 13:12:39;;;;;;;;;;;21.80;99.90;;;;;;5331504;26;19935;-83
2024/04/13 13:15:05;;;;;;;;;;;21.70;99.90;;;;;;5396415;26;20548;-83
2024/04/13 13:17:31;;;;;;;;;;;21.70;99.90;;;;;;5369107;26;19937;-83
2024/04/13 13:19:56;;;;;;;;;;;21.70;99.90;;;;;;5375162;26;19930;-82
2024/04/13 13:22:22;;;;;;;;;;;21.80;99.90;;;;;;5361949;26;19941;-83
2024/04/13 13:24:48;;;;;;;;;;;22.00;99.90;;;;;;5336266;26;19969;-82
2024/04/13 13:27:13;;;;;;;;;;;22.10;99.90;;;;;;5367316;26;19957;-82
2024/04/13 13:29:39;;;;;;;;;;;22.10;99.90;;;;;;5389925;26;19945;-84
2024/04/13 13:32:05;;;;;;;;;;;22.20;99.90;;;;;;5330709;26;19938;-82
2024/04/13 13:34:30;;;;;;;;;;;22.30;99.90;;;;;;5363922;26;19971;-83
2024/04/13 13:36:56;;;;;;;;;;;22.50;99.90;;;;;;5390685;26;19940;-82
2024/04/13 13:39:22;;;;;;;;;;;22.50;99.90;;;;;;5372734;26;19936;-83
2024/04/13 13:41:47;;;;;;;;;;;22.30;99.90;;;;;;5355103;26;19937;-83
2024/04/13 13:44:13;;;;;;;;;;;22.20;99.90;;;;;;5397510;26;19930;-82
2024/04/13 13:46:38;;;;;;;;;;;22.20;99.90;;;;;;5421573;26;19935;-82
2024/04/13 13:49:04;;;;;;;;;;;22.10;99.90;;;;;;5318010;26;19935;-82
2024/04/13 13:51:31;;;;;;;;;;;22.00;99.90;;;;;;5362310;26;19937;-82
2024/04/13 13:53:57;;;;;;;;;;;22.00;99.90;;;;;;5362217;26;20280;-82
2024/04/13 13:56:23;;;;;;;;;;;21.90;99.90;;;;;;5378760;26;19936;-82
2024/04/13 13:58:50;;;;;;;;;;;22.00;99.90;;;;;;5390226;26;20323;-82
2024/04/13 14:01:16;;;;;;;;;;;22.10;99.90;;;;;;5379583;26;19930;-83
2024/04/13 14:03:43;;;;;;;;;;;22.00;99.90;;;;;;5391143;26;19929;-82
2024/04/13 14:06:09;;;;;;;;;;;22.10;99.90;;;;;;5362583;26;19937;-82
2024/04/13 14:08:34;;;;;;;;;;;22.10;99.90;;;;;;5361305;26;19930;-81
2024/04/13 14:11:00;;;;;;;;;;;22.00;99.90;;;;;;5336833;26;19936;-81
2024/04/13 14:13:25;;;;;;;;;;;22.10;99.90;;;;;;5393399;26;19974;-81